sensor_id;sensor_type;location;lat;lon;timestamp;pressure;altitude;pressure_sealevel;temperature;humidity
70127;BME280;57491;42.694;23.314;2023-07-13T00:00:31;95376.13;;;25.13;52.47
70127;BME280;57491;42.694;23.314;2023-07-13T00:03:00;95370.28;;;25.11;52.76
70127;BME280;57491;42.694;23.314;2023-07-13T00:05:26;95375.03;;;25.04;52.92
70127;BME280;57491;42.694;23.314;2023-07-13T00:07:54;95377.19;;;25.02;53.17
70127;BME280;57491;42.694;23.314;2023-07-13T00:10:21;95378.22;;;24.96;53.68
70127;BME280;57491;42.694;23.314;2023-07-13T00:12:49;95370.50;;;24.90;53.66
70127;BME280;57491;42.694;23.314;2023-07-13T00:15:18;95385.34;;;24.85;54.29
70127;BME280;57491;42.694;23.314;2023-07-13T00:17:48;95371.72;;;24.77;54.52
70127;BME280;57491;42.694;23.314;2023-07-13T00:20:17;95368.56;;;24.80;55.00
70127;BME280;57491;42.694;23.314;2023-07-13T00:22:44;95363.25;;;24.80;55.11
70127;BME280;57491;42.694;23.314;2023-07-13T00:25:11;95360.31;;;24.76;55.35
70127;BME280;57491;42.694;23.314;2023-07-13T00:27:39;95375.44;;;24.71;55.92
70127;BME280;57491;42.694;23.314;2023-07-13T00:30:06;95365.06;;;24.69;55.87
70127;BME280;57491;42.694;23.314;2023-07-13T00:32:34;95362.38;;;24.64;56.11
70127;BME280;57491;42.694;23.314;2023-07-13T00:35:02;95362.59;;;24.53;56.43
70127;BME280;57491;42.694;23.314;2023-07-13T00:37:31;95360.22;;;24.56;56.48
70127;BME280;57491;42.694;23.314;2023-07-13T00:39:59;95351.41;;;24.51;56.75
70127;BME280;57491;42.694;23.314;2023-07-13T00:42:26;95361.50;;;24.49;56.77
70127;BME280;57491;42.694;23.314;2023-07-13T00:45:05;95364.66;;;24.45;56.56
70127;BME280;57491;42.694;23.314;2023-07-13T00:47:33;95359.84;;;24.37;56.66
70127;BME280;57491;42.694;23.314;2023-07-13T00:50:01;95365.13;;;24.32;57.18
70127;BME280;57491;42.694;23.314;2023-07-13T00:52:31;95363.00;;;24.29;57.12
70127;BME280;57491;42.694;23.314;2023-07-13T00:54:58;95363.56;;;24.31;57.15
70127;BME280;57491;42.694;23.314;2023-07-13T00:57:25;95362.16;;;24.24;57.45
70127;BME280;57491;42.694;23.314;2023-07-13T00:59:55;95363.22;;;24.23;57.24
70127;BME280;57491;42.694;23.314;2023-07-13T01:02:23;95360.28;;;24.19;57.53
70127;BME280;57491;42.694;23.314;2023-07-13T01:04:50;95350.16;;;24.16;57.64
70127;BME280;57491;42.694;23.314;2023-07-13T01:07:18;95338.63;;;24.06;57.56
70127;BME280;57491;42.694;23.314;2023-07-13T01:09:47;95356.22;;;24.12;57.55
70127;BME280;57491;42.694;23.314;2023-07-13T01:12:14;95356.22;;;24.12;58.24
70127;BME280;57491;42.694;23.314;2023-07-13T01:14:41;95350.84;;;24.01;58.02
70127;BME280;57491;42.694;23.314;2023-07-13T01:17:09;95351.59;;;23.97;58.44
70127;BME280;57491;42.694;23.314;2023-07-13T01:19:39;95359.03;;;23.95;58.26
70127;BME280;57491;42.694;23.314;2023-07-13T01:22:12;95343.22;;;23.78;58.68
70127;BME280;57491;42.694;23.314;2023-07-13T01:24:40;95331.31;;;23.81;58.87
70127;BME280;57491;42.694;23.314;2023-07-13T01:27:09;95338.19;;;23.77;59.08
70127;BME280;57491;42.694;23.314;2023-07-13T01:29:38;95345.31;;;23.71;59.22
70127;BME280;57491;42.694;23.314;2023-07-13T01:32:09;95350.09;;;23.74;59.13
70127;BME280;57491;42.694;23.314;2023-07-13T01:34:36;95353.56;;;23.75;59.21
70127;BME280;57491;42.694;23.314;2023-07-13T01:37:04;95353.03;;;23.73;59.36
70127;BME280;57491;42.694;23.314;2023-07-13T01:39:33;95347.69;;;23.68;59.67
70127;BME280;57491;42.694;23.314;2023-07-13T01:42:00;95344.97;;;23.63;59.80
70127;BME280;57491;42.694;23.314;2023-07-13T01:44:27;95343.31;;;23.56;60.06
70127;BME280;57491;42.694;23.314;2023-07-13T01:46:54;95354.34;;;23.43;60.38
70127;BME280;57491;42.694;23.314;2023-07-13T01:49:21;95353.31;;;23.44;60.91
70127;BME280;57491;42.694;23.314;2023-07-13T01:51:49;95348.81;;;23.45;61.13
70127;BME280;57491;42.694;23.314;2023-07-13T01:54:16;95346.97;;;23.45;60.69
70127;BME280;57491;42.694;23.314;2023-07-13T01:56:45;95349.03;;;23.43;61.32
70127;BME280;57491;42.694;23.314;2023-07-13T01:59:12;95340.78;;;23.40;61.34
70127;BME280;57491;42.694;23.314;2023-07-13T02:01:39;95350.34;;;23.41;61.89
70127;BME280;57491;42.694;23.314;2023-07-13T02:04:06;95352.19;;;23.40;61.81
70127;BME280;57491;42.694;23.314;2023-07-13T02:06:33;95354.13;;;23.45;61.54
70127;BME280;57491;42.694;23.314;2023-07-13T02:09:00;95355.38;;;23.42;61.57
70127;BME280;57491;42.694;23.314;2023-07-13T02:11:27;95359.97;;;23.47;61.44
70127;BME280;57491;42.694;23.314;2023-07-13T02:13:59;95363.97;;;23.49;61.86
70127;BME280;57491;42.694;23.314;2023-07-13T02:16:27;95363.41;;;23.47;61.89
70127;BME280;57491;42.694;23.314;2023-07-13T02:18:54;95354.84;;;23.40;62.20
70127;BME280;57491;42.694;23.314;2023-07-13T02:21:22;95357.97;;;23.37;62.25
70127;BME280;57491;42.694;23.314;2023-07-13T02:23:50;95359.88;;;23.37;61.95
70127;BME280;57491;42.694;23.314;2023-07-13T02:26:18;95368.06;;;23.35;62.26
70127;BME280;57491;42.694;23.314;2023-07-13T02:28:46;95373.91;;;23.37;62.43
70127;BME280;57491;42.694;23.314;2023-07-13T02:31:15;95370.50;;;23.42;62.39
70127;BME280;57491;42.694;23.314;2023-07-13T02:33:42;95371.09;;;23.44;62.31
70127;BME280;57491;42.694;23.314;2023-07-13T02:36:11;95352.66;;;23.32;62.71
70127;BME280;57491;42.694;23.314;2023-07-13T02:38:38;95369.16;;;23.39;62.73
70127;BME280;57491;42.694;23.314;2023-07-13T02:41:07;95370.72;;;23.35;62.83
70127;BME280;57491;42.694;23.314;2023-07-13T02:43:35;95358.16;;;23.26;63.08
70127;BME280;57491;42.694;23.314;2023-07-13T02:46:02;95370.44;;;23.32;62.89
70127;BME280;57491;42.694;23.314;2023-07-13T02:48:34;95366.91;;;23.26;63.08
70127;BME280;57491;42.694;23.314;2023-07-13T02:51:01;95367.97;;;23.25;63.15
70127;BME280;57491;42.694;23.314;2023-07-13T02:53:29;95369.00;;;23.24;63.23
70127;BME280;57491;42.694;23.314;2023-07-13T02:55:56;95373.22;;;23.20;63.20
70127;BME280;57491;42.694;23.314;2023-07-13T02:58:23;95373.72;;;23.17;63.36
70127;BME280;57491;42.694;23.314;2023-07-13T03:00:50;95373.09;;;23.10;63.39
70127;BME280;57491;42.694;23.314;2023-07-13T03:03:17;95368.50;;;23.00;63.25
70127;BME280;57491;42.694;23.314;2023-07-13T03:05:46;95382.31;;;23.02;63.19
70127;BME280;57491;42.694;23.314;2023-07-13T03:08:16;95383.69;;;23.05;62.95
70127;BME280;57491;42.694;23.314;2023-07-13T03:10:43;95381.03;;;23.05;62.75
70127;BME280;57491;42.694;23.314;2023-07-13T03:13:10;95386.81;;;23.02;62.70
70127;BME280;57491;42.694;23.314;2023-07-13T03:15:37;95383.91;;;23.03;62.83
70127;BME280;57491;42.694;23.314;2023-07-13T03:18:04;95386.34;;;23.05;62.39
70127;BME280;57491;42.694;23.314;2023-07-13T03:20:33;95379.72;;;23.07;62.41
70127;BME280;57491;42.694;23.314;2023-07-13T03:23:01;95389.81;;;23.10;62.27
70127;BME280;57491;42.694;23.314;2023-07-13T03:25:28;95384.03;;;23.13;62.07
70127;BME280;57491;42.694;23.314;2023-07-13T03:27:55;95376.81;;;23.09;61.83
70127;BME280;57491;42.694;23.314;2023-07-13T03:30:22;95386.41;;;23.15;62.04
70127;BME280;57491;42.694;23.314;2023-07-13T03:32:50;95384.34;;;23.17;61.90
70127;BME280;57491;42.694;23.314;2023-07-13T03:35:17;95388.59;;;23.18;61.90
70127;BME280;57491;42.694;23.314;2023-07-13T03:37:44;95391.84;;;23.25;61.25
70127;BME280;57491;42.694;23.314;2023-07-13T03:40:13;95397.38;;;23.24;61.31
70127;BME280;57491;42.694;23.314;2023-07-13T03:42:40;95395.59;;;23.29;60.93
70127;BME280;57491;42.694;23.314;2023-07-13T03:45:08;95373.31;;;23.30;60.83
70127;BME280;57491;42.694;23.314;2023-07-13T03:47:35;95388.78;;;23.38;60.51
70127;BME280;57491;42.694;23.314;2023-07-13T03:50:03;95388.28;;;23.41;60.89
70127;BME280;57491;42.694;23.314;2023-07-13T03:52:31;95389.97;;;23.47;61.01
70127;BME280;57491;42.694;23.314;2023-07-13T03:54:58;95389.25;;;23.57;60.37
70127;BME280;57491;42.694;23.314;2023-07-13T03:57:27;95389.06;;;23.64;59.97
70127;BME280;57491;42.694;23.314;2023-07-13T03:59:54;95394.94;;;23.71;59.91
70127;BME280;57491;42.694;23.314;2023-07-13T04:02:21;95373.16;;;23.69;59.73
70127;BME280;57491;42.694;23.314;2023-07-13T04:04:48;95386.56;;;23.84;59.59
70127;BME280;57491;42.694;23.314;2023-07-13T04:07:15;95382.34;;;23.88;59.36
70127;BME280;57491;42.694;23.314;2023-07-13T04:09:42;95386.09;;;23.92;58.97
70127;BME280;57491;42.694;23.314;2023-07-13T04:12:09;95375.69;;;23.85;59.22
70127;BME280;57491;42.694;23.314;2023-07-13T04:14:38;95381.03;;;23.90;58.90
70127;BME280;57491;42.694;23.314;2023-07-13T04:17:05;95382.47;;;24.03;58.47
70127;BME280;57491;42.694;23.314;2023-07-13T04:19:32;95382.19;;;24.05;58.41
70127;BME280;57491;42.694;23.314;2023-07-13T04:21:59;95395.00;;;24.13;58.61
70127;BME280;57491;42.694;23.314;2023-07-13T04:24:26;95403.81;;;24.18;58.51
70127;BME280;57491;42.694;23.314;2023-07-13T04:26:53;95394.31;;;24.27;58.17
70127;BME280;57491;42.694;23.314;2023-07-13T04:29:20;95400.22;;;24.34;57.71
70127;BME280;57491;42.694;23.314;2023-07-13T04:31:49;95401.34;;;24.43;57.77
70127;BME280;57491;42.694;23.314;2023-07-13T04:34:16;95401.09;;;24.50;57.61
70127;BME280;57491;42.694;23.314;2023-07-13T04:36:43;95401.16;;;24.60;57.19
70127;BME280;57491;42.694;23.314;2023-07-13T04:39:10;95400.41;;;24.70;56.83
70127;BME280;57491;42.694;23.314;2023-07-13T04:41:37;95402.06;;;24.81;56.46
70127;BME280;57491;42.694;23.314;2023-07-13T04:44:04;95399.47;;;24.91;55.96
70127;BME280;57491;42.694;23.314;2023-07-13T04:46:31;95405.38;;;24.98;55.89
70127;BME280;57491;42.694;23.314;2023-07-13T04:48:59;95396.59;;;24.98;55.81
70127;BME280;57491;42.694;23.314;2023-07-13T04:51:29;95408.56;;;25.05;55.64
70127;BME280;57491;42.694;23.314;2023-07-13T04:53:57;95416.03;;;25.08;55.56
70127;BME280;57491;42.694;23.314;2023-07-13T04:56:24;95418.69;;;25.13;55.24
70127;BME280;57491;42.694;23.314;2023-07-13T04:58:51;95417.91;;;25.18;55.33
70127;BME280;57491;42.694;23.314;2023-07-13T05:01:18;95427.28;;;25.36;55.26
70127;BME280;57491;42.694;23.314;2023-07-13T05:03:46;95429.16;;;25.40;54.85
70127;BME280;57491;42.694;23.314;2023-07-13T05:06:14;95427.31;;;25.51;55.36
70127;BME280;57491;42.694;23.314;2023-07-13T05:08:41;95426.84;;;25.59;54.36
70127;BME280;57491;42.694;23.314;2023-07-13T05:11:08;95424.19;;;25.64;53.68
70127;BME280;57491;42.694;23.314;2023-07-13T05:13:35;95430.84;;;25.71;53.73
70127;BME280;57491;42.694;23.314;2023-07-13T05:16:04;95423.41;;;25.79;53.27
70127;BME280;57491;42.694;23.314;2023-07-13T05:18:31;95424.47;;;25.88;53.57
70127;BME280;57491;42.694;23.314;2023-07-13T05:21:01;95429.53;;;25.99;53.16
70127;BME280;57491;42.694;23.314;2023-07-13T05:23:30;95428.22;;;26.07;52.76
70127;BME280;57491;42.694;23.314;2023-07-13T05:25:57;95423.66;;;26.12;52.26
70127;BME280;57491;42.694;23.314;2023-07-13T05:28:24;95429.03;;;26.28;52.06
70127;BME280;57491;42.694;23.314;2023-07-13T05:30:52;95428.22;;;26.32;51.72
70127;BME280;57491;42.694;23.314;2023-07-13T05:33:20;95435.66;;;26.45;51.01
70127;BME280;57491;42.694;23.314;2023-07-13T05:35:47;95439.13;;;26.56;50.53
70127;BME280;57491;42.694;23.314;2023-07-13T05:38:14;95435.59;;;26.71;50.88
70127;BME280;57491;42.694;23.314;2023-07-13T05:40:43;95438.81;;;26.73;50.05
70127;BME280;57491;42.694;23.314;2023-07-13T05:43:11;95444.91;;;26.83;49.39
70127;BME280;57491;42.694;23.314;2023-07-13T05:45:38;95439.03;;;26.96;49.40
70127;BME280;57491;42.694;23.314;2023-07-13T05:48:05;95441.13;;;27.10;48.75
70127;BME280;57491;42.694;23.314;2023-07-13T05:50:32;95440.00;;;27.21;48.74
70127;BME280;57491;42.694;23.314;2023-07-13T05:53:00;95450.13;;;27.29;48.56
70127;BME280;57491;42.694;23.314;2023-07-13T05:55:27;95437.75;;;27.38;48.87
70127;BME280;57491;42.694;23.314;2023-07-13T05:57:56;95438.53;;;27.54;48.09
70127;BME280;57491;42.694;23.314;2023-07-13T06:00:23;95425.06;;;27.74;47.99
70127;BME280;57491;42.694;23.314;2023-07-13T06:02:51;95423.94;;;27.75;47.91
70127;BME280;57491;42.694;23.314;2023-07-13T06:05:18;95419.94;;;27.77;46.94
70127;BME280;57491;42.694;23.314;2023-07-13T06:07:45;95420.81;;;28.02;46.85
70127;BME280;57491;42.694;23.314;2023-07-13T06:10:12;95425.50;;;28.20;45.79
70127;BME280;57491;42.694;23.314;2023-07-13T06:12:39;95425.31;;;28.11;46.15
70127;BME280;57491;42.694;23.314;2023-07-13T06:15:08;95433.44;;;28.30;45.72
70127;BME280;57491;42.694;23.314;2023-07-13T06:17:36;95430.88;;;28.49;45.50
70127;BME280;57491;42.694;23.314;2023-07-13T06:20:03;95422.38;;;28.70;45.60
70127;BME280;57491;42.694;23.314;2023-07-13T06:22:30;95424.16;;;28.80;44.71
70127;BME280;57491;42.694;23.314;2023-07-13T06:24:57;95430.97;;;28.91;44.13
70127;BME280;57491;42.694;23.314;2023-07-13T06:27:25;95434.22;;;29.12;43.92
70127;BME280;57491;42.694;23.314;2023-07-13T06:29:52;95431.22;;;29.37;43.46
70127;BME280;57491;42.694;23.314;2023-07-13T06:32:20;95425.09;;;29.55;43.89
70127;BME280;57491;42.694;23.314;2023-07-13T06:34:47;95427.50;;;29.76;41.83
70127;BME280;57491;42.694;23.314;2023-07-13T06:37:14;95433.22;;;29.88;42.27
70127;BME280;57491;42.694;23.314;2023-07-13T06:39:42;95425.19;;;29.88;41.09
70127;BME280;57491;42.694;23.314;2023-07-13T06:42:09;95426.63;;;29.99;41.25
70127;BME280;57491;42.694;23.314;2023-07-13T06:44:36;95425.16;;;30.06;41.37
70127;BME280;57491;42.694;23.314;2023-07-13T06:47:04;95417.84;;;30.12;41.02
70127;BME280;57491;42.694;23.314;2023-07-13T06:49:33;95426.28;;;30.19;41.72
70127;BME280;57491;42.694;23.314;2023-07-13T06:52:00;95424.53;;;30.28;41.19
70127;BME280;57491;42.694;23.314;2023-07-13T06:54:27;95422.16;;;30.40;41.23
70127;BME280;57491;42.694;23.314;2023-07-13T06:56:54;95422.56;;;30.34;41.19
70127;BME280;57491;42.694;23.314;2023-07-13T06:59:21;95417.97;;;30.53;39.78
70127;BME280;57491;42.694;23.314;2023-07-13T07:01:49;95426.63;;;30.64;39.61
70127;BME280;57491;42.694;23.314;2023-07-13T07:04:16;95432.59;;;30.88;40.12
70127;BME280;57491;42.694;23.314;2023-07-13T07:06:44;95429.25;;;31.10;40.42
70127;BME280;57491;42.694;23.314;2023-07-13T07:09:11;95423.88;;;31.23;39.15
70127;BME280;57491;42.694;23.314;2023-07-13T07:11:39;95432.53;;;31.34;39.09
70127;BME280;57491;42.694;23.314;2023-07-13T07:14:08;95420.75;;;31.43;38.69
70127;BME280;57491;42.694;23.314;2023-07-13T07:16:35;95417.28;;;31.43;38.63
70127;BME280;57491;42.694;23.314;2023-07-13T07:19:02;95420.63;;;31.62;37.70
70127;BME280;57491;42.694;23.314;2023-07-13T07:21:29;95409.66;;;31.72;37.74
70127;BME280;57491;42.694;23.314;2023-07-13T07:23:58;95415.22;;;31.76;38.11
70127;BME280;57491;42.694;23.314;2023-07-13T07:26:25;95413.22;;;31.81;38.08
70127;BME280;57491;42.694;23.314;2023-07-13T07:28:52;95416.34;;;31.97;37.31
70127;BME280;57491;42.694;23.314;2023-07-13T07:31:19;95415.97;;;31.90;36.72
70127;BME280;57491;42.694;23.314;2023-07-13T07:33:47;95404.63;;;31.79;36.72
70127;BME280;57491;42.694;23.314;2023-07-13T07:36:15;95414.88;;;31.91;37.11
70127;BME280;57491;42.694;23.314;2023-07-13T07:38:42;95399.34;;;31.88;37.19
70127;BME280;57491;42.694;23.314;2023-07-13T07:41:13;95404.28;;;31.95;37.19
70127;BME280;57491;42.694;23.314;2023-07-13T07:43:40;95388.63;;;32.10;36.85
70127;BME280;57491;42.694;23.314;2023-07-13T07:46:07;95393.97;;;32.33;36.57
70127;BME280;57491;42.694;23.314;2023-07-13T07:48:34;95392.19;;;32.59;36.00
70127;BME280;57491;42.694;23.314;2023-07-13T07:51:01;95389.78;;;32.80;35.47
70127;BME280;57491;42.694;23.314;2023-07-13T07:53:28;95394.72;;;32.86;35.67
70127;BME280;57491;42.694;23.314;2023-07-13T07:55:55;95381.75;;;33.05;34.64
70127;BME280;57491;42.694;23.314;2023-07-13T07:58:23;95386.03;;;32.98;34.65
70127;BME280;57491;42.694;23.314;2023-07-13T08:00:50;95379.78;;;32.80;34.24
70127;BME280;57491;42.694;23.314;2023-07-13T08:03:17;95375.53;;;32.88;34.79
70127;BME280;57491;42.694;23.314;2023-07-13T08:05:44;95375.75;;;33.00;35.26
70127;BME280;57491;42.694;23.314;2023-07-13T08:08:11;95376.53;;;33.00;34.45
70127;BME280;57491;42.694;23.314;2023-07-13T08:10:38;95368.22;;;32.80;34.66
70127;BME280;57491;42.694;23.314;2023-07-13T08:13:05;95369.81;;;32.81;33.98
70127;BME280;57491;42.694;23.314;2023-07-13T08:15:34;95362.09;;;32.96;33.46
70127;BME280;57491;42.694;23.314;2023-07-13T08:18:01;95369.34;;;33.27;33.60
70127;BME280;57491;42.694;23.314;2023-07-13T08:20:28;95359.81;;;33.29;34.30
70127;BME280;57491;42.694;23.314;2023-07-13T08:22:55;95353.56;;;33.11;33.90
70127;BME280;57491;42.694;23.314;2023-07-13T08:25:22;95354.44;;;33.29;33.58
70127;BME280;57491;42.694;23.314;2023-07-13T08:27:49;95348.44;;;33.49;33.20
70127;BME280;57491;42.694;23.314;2023-07-13T08:30:16;95354.31;;;33.94;32.44
70127;BME280;57491;42.694;23.314;2023-07-13T08:32:45;95353.75;;;34.35;31.69
70127;BME280;57491;42.694;23.314;2023-07-13T08:35:12;95352.84;;;34.69;31.53
70127;BME280;57491;42.694;23.314;2023-07-13T08:37:39;95345.59;;;34.90;31.31
70127;BME280;57491;42.694;23.314;2023-07-13T08:40:07;95353.63;;;35.08;31.51
70127;BME280;57491;42.694;23.314;2023-07-13T08:42:37;95338.94;;;35.17;30.40
70127;BME280;57491;42.694;23.314;2023-07-13T08:45:12;95339.41;;;35.19;30.86
70127;BME280;57491;42.694;23.314;2023-07-13T08:47:47;95342.59;;;35.42;31.57
70127;BME280;57491;42.694;23.314;2023-07-13T08:50:17;95335.81;;;35.57;30.25
70127;BME280;57491;42.694;23.314;2023-07-13T08:52:47;95345.84;;;35.77;29.10
70127;BME280;57491;42.694;23.314;2023-07-13T08:55:16;95344.34;;;36.00;28.89
70127;BME280;57491;42.694;23.314;2023-07-13T08:57:48;95347.84;;;36.01;28.53
70127;BME280;57491;42.694;23.314;2023-07-13T09:00:18;95354.28;;;36.08;30.21
70127;BME280;57491;42.694;23.314;2023-07-13T09:02:57;95358.53;;;36.18;29.30
70127;BME280;57491;42.694;23.314;2023-07-13T09:05:27;95359.13;;;36.36;28.12
70127;BME280;57491;42.694;23.314;2023-07-13T09:08:15;95369.72;;;36.74;28.84
70127;BME280;57491;42.694;23.314;2023-07-13T09:10:52;95368.97;;;37.09;28.84
70127;BME280;57491;42.694;23.314;2023-07-13T09:13:28;95365.00;;;37.19;28.03
70127;BME280;57491;42.694;23.314;2023-07-13T09:16:02;95376.25;;;37.45;27.76
70127;BME280;57491;42.694;23.314;2023-07-13T09:18:35;95369.00;;;37.62;27.70
70127;BME280;57491;42.694;23.314;2023-07-13T09:21:05;95360.63;;;37.67;26.88
70127;BME280;57491;42.694;23.314;2023-07-13T09:23:36;95363.03;;;37.56;27.19
70127;BME280;57491;42.694;23.314;2023-07-13T09:26:05;95361.97;;;37.73;27.55
70127;BME280;57491;42.694;23.314;2023-07-13T09:28:38;95368.22;;;38.01;27.39
70127;BME280;57491;42.694;23.314;2023-07-13T09:31:09;95375.13;;;38.26;26.60
70127;BME280;57491;42.694;23.314;2023-07-13T09:33:40;95368.09;;;38.25;26.21
70127;BME280;57491;42.694;23.314;2023-07-13T09:36:20;95373.13;;;38.39;26.37
70127;BME280;57491;42.694;23.314;2023-07-13T09:41:23;95363.44;;;38.85;25.88
70127;BME280;57491;42.694;23.314;2023-07-13T09:44:01;95355.22;;;38.97;25.73
70127;BME280;57491;42.694;23.314;2023-07-13T09:46:28;95354.59;;;38.88;25.52
70127;BME280;57491;42.694;23.314;2023-07-13T09:48:57;95354.16;;;38.86;25.87
70127;BME280;57491;42.694;23.314;2023-07-13T09:51:25;95346.88;;;38.74;26.14
70127;BME280;57491;42.694;23.314;2023-07-13T09:53:52;95331.25;;;38.56;26.34
70127;BME280;57491;42.694;23.314;2023-07-13T09:56:20;95334.53;;;38.46;26.21
70127;BME280;57491;42.694;23.314;2023-07-13T09:58:48;95333.94;;;38.40;26.01
70127;BME280;57491;42.694;23.314;2023-07-13T10:01:15;95321.06;;;38.37;26.21
70127;BME280;57491;42.694;23.314;2023-07-13T10:03:52;95321.00;;;38.65;26.58
70127;BME280;57491;42.694;23.314;2023-07-13T10:06:22;95311.88;;;39.04;25.93
70127;BME280;57491;42.694;23.314;2023-07-13T10:08:50;95297.78;;;39.34;26.43
70127;BME280;57491;42.694;23.314;2023-07-13T10:11:19;95299.78;;;39.56;22.53
70127;BME280;57491;42.694;23.314;2023-07-13T10:13:51;95309.03;;;39.70;20.59
70127;BME280;57491;42.694;23.314;2023-07-13T10:16:21;95308.50;;;39.46;20.65
70127;BME280;57491;42.694;23.314;2023-07-13T10:18:53;95314.09;;;39.72;21.93
70127;BME280;57491;42.694;23.314;2023-07-13T10:21:28;95312.56;;;40.13;20.60
70127;BME280;57491;42.694;23.314;2023-07-13T10:24:04;95309.19;;;40.39;19.35
70127;BME280;57491;42.694;23.314;2023-07-13T10:26:33;95305.63;;;40.16;18.74
70127;BME280;57491;42.694;23.314;2023-07-13T10:29:03;95302.97;;;40.38;19.15
70127;BME280;57491;42.694;23.314;2023-07-13T10:31:35;95299.84;;;40.40;18.99
70127;BME280;57491;42.694;23.314;2023-07-13T10:34:04;95289.03;;;40.43;19.77
70127;BME280;57491;42.694;23.314;2023-07-13T10:36:40;95297.78;;;40.56;19.29
70127;BME280;57491;42.694;23.314;2023-07-13T10:39:15;95295.56;;;40.39;19.25
70127;BME280;57491;42.694;23.314;2023-07-13T10:41:44;95288.09;;;40.36;18.78
70127;BME280;57491;42.694;23.314;2023-07-13T10:44:20;95293.78;;;40.50;18.75
70127;BME280;57491;42.694;23.314;2023-07-13T10:46:52;95292.47;;;40.63;19.16
70127;BME280;57491;42.694;23.314;2023-07-13T10:49:22;95274.66;;;40.24;18.03
70127;BME280;57491;42.694;23.314;2023-07-13T10:51:51;95266.00;;;39.76;18.45
70127;BME280;57491;42.694;23.314;2023-07-13T10:54:20;95271.13;;;40.00;19.04
70127;BME280;57491;42.694;23.314;2023-07-13T10:56:53;95261.78;;;40.21;18.64
70127;BME280;57491;42.694;23.314;2023-07-13T10:59:31;95262.25;;;40.49;18.27
70127;BME280;57491;42.694;23.314;2023-07-13T11:02:05;95257.78;;;40.86;18.71
70127;BME280;57491;42.694;23.314;2023-07-13T11:04:40;95255.56;;;40.95;18.23
70127;BME280;57491;42.694;23.314;2023-07-13T11:07:19;95247.16;;;41.04;17.23
70127;BME280;57491;42.694;23.314;2023-07-13T11:09:50;95251.94;;;41.11;18.18
70127;BME280;57491;42.694;23.314;2023-07-13T11:12:48;95235.28;;;41.19;17.82
70127;BME280;57491;42.694;23.314;2023-07-13T11:15:31;95230.38;;;41.32;17.92
70127;BME280;57491;42.694;23.314;2023-07-13T11:18:02;95237.47;;;41.40;18.23
70127;BME280;57491;42.694;23.314;2023-07-13T11:20:37;95242.69;;;41.49;17.25
70127;BME280;57491;42.694;23.314;2023-07-13T11:23:19;95240.84;;;41.56;17.66
70127;BME280;57491;42.694;23.314;2023-07-13T11:25:47;95238.69;;;41.13;17.88
70127;BME280;57491;42.694;23.314;2023-07-13T11:28:18;95228.16;;;40.85;18.28
70127;BME280;57491;42.694;23.314;2023-07-13T11:30:49;95233.81;;;40.99;19.45
70127;BME280;57491;42.694;23.314;2023-07-13T11:33:31;95232.63;;;40.96;18.59
70127;BME280;57491;42.694;23.314;2023-07-13T11:36:13;95224.19;;;40.79;19.04
70127;BME280;57491;42.694;23.314;2023-07-13T11:38:45;95228.84;;;40.78;19.57
70127;BME280;57491;42.694;23.314;2023-07-13T11:41:17;95221.97;;;40.88;19.34
70127;BME280;57491;42.694;23.314;2023-07-13T11:43:45;95223.59;;;40.92;19.57
70127;BME280;57491;42.694;23.314;2023-07-13T11:46:20;95215.22;;;41.05;19.60
70127;BME280;57491;42.694;23.314;2023-07-13T11:48:48;95213.91;;;41.25;19.58
70127;BME280;57491;42.694;23.314;2023-07-13T11:51:21;95205.47;;;40.77;18.57
70127;BME280;57491;42.694;23.314;2023-07-13T11:53:53;95210.88;;;40.74;20.04
70127;BME280;57491;42.694;23.314;2023-07-13T11:56:21;95199.97;;;40.74;19.97
70127;BME280;57491;42.694;23.314;2023-07-13T11:58:51;95198.38;;;40.73;19.71
70127;BME280;57491;42.694;23.314;2023-07-13T12:01:21;95197.56;;;40.69;20.24
70127;BME280;57491;42.694;23.314;2023-07-13T12:03:49;95189.69;;;40.64;20.04
70127;BME280;57491;42.694;23.314;2023-07-13T12:06:25;95182.69;;;40.40;20.21
70127;BME280;57491;42.694;23.314;2023-07-13T12:08:57;95188.16;;;40.17;19.29
70127;BME280;57491;42.694;23.314;2023-07-13T12:11:25;95184.66;;;39.94;20.14
70127;BME280;57491;42.694;23.314;2023-07-13T12:13:52;95192.31;;;39.46;20.46
70127;BME280;57491;42.694;23.314;2023-07-13T12:16:26;95184.72;;;39.55;21.53
70127;BME280;57491;42.694;23.314;2023-07-13T12:18:54;95183.22;;;39.39;20.80
70127;BME280;57491;42.694;23.314;2023-07-13T12:21:28;95173.38;;;39.31;21.19
70127;BME280;57491;42.694;23.314;2023-07-13T12:23:58;95173.06;;;39.16;21.44
70127;BME280;57491;42.694;23.314;2023-07-13T12:26:28;95169.09;;;39.14;21.42
70127;BME280;57491;42.694;23.314;2023-07-13T12:28:58;95158.09;;;38.88;21.03
70127;BME280;57491;42.694;23.314;2023-07-13T12:31:31;95161.69;;;38.76;21.55
70127;BME280;57491;42.694;23.314;2023-07-13T12:34:00;95134.34;;;38.50;21.68
70127;BME280;57491;42.694;23.314;2023-07-13T12:36:36;95154.38;;;38.61;21.54
70127;BME280;57491;42.694;23.314;2023-07-13T12:39:14;95152.22;;;38.51;20.63
70127;BME280;57491;42.694;23.314;2023-07-13T12:41:42;95144.34;;;38.46;20.88
70127;BME280;57491;42.694;23.314;2023-07-13T12:44:15;95139.72;;;38.30;21.54
70127;BME280;57491;42.694;23.314;2023-07-13T12:46:55;95131.47;;;38.27;21.98
70127;BME280;57491;42.694;23.314;2023-07-13T12:49:26;95134.03;;;38.20;21.94
70127;BME280;57491;42.694;23.314;2023-07-13T12:51:57;95136.28;;;38.33;22.11
70127;BME280;57491;42.694;23.314;2023-07-13T12:54:27;95133.47;;;38.30;21.86
70127;BME280;57491;42.694;23.314;2023-07-13T12:56:57;95133.22;;;38.35;22.05
70127;BME280;57491;42.694;23.314;2023-07-13T12:59:32;95132.38;;;38.15;20.93
70127;BME280;57491;42.694;23.314;2023-07-13T13:02:22;95130.09;;;38.17;21.23